createdAt,value
2019-02-04T00:00:19.982Z,1.09
2019-02-04T00:01:19.384Z,1.2
2019-02-04T00:02:19.396Z,1.12
2019-02-04T00:03:34.075Z,1.14
2019-02-04T00:04:19.419Z,1.24
2019-02-04T00:05:19.436Z,1.04
2019-02-04T00:06:19.448Z,1.11
2019-02-04T00:07:19.459Z,1.12
2019-02-04T00:08:19.944Z,1.12
2019-02-04T00:09:19.487Z,1.14
2019-02-04T00:10:19.499Z,1.06
2019-02-04T00:11:19.512Z,1.16
2019-02-04T00:12:19.516Z,1.08
2019-02-04T00:13:34.186Z,1.14
2019-02-04T00:14:19.545Z,1.2
2019-02-04T00:16:19.969Z,1.12
2019-02-04T00:18:19.593Z,1.04
2019-02-04T00:19:34.265Z,1.12
2019-02-04T00:21:19.630Z,1.11
2019-02-04T00:22:19.701Z,0.98
2019-02-04T00:23:19.657Z,1.02
2019-02-04T00:25:21.545Z,1
2019-02-04T00:26:19.697Z,0.98
2019-02-04T00:27:19.701Z,0.96
2019-02-04T00:28:19.702Z,0.97
2019-02-04T00:29:19.728Z,0.87
2019-02-04T00:31:19.743Z,0.87
2019-02-04T00:32:20.397Z,0.86
2019-02-04T00:33:19.778Z,0.86
2019-02-04T00:34:19.776Z,0.84
2019-02-04T00:35:34.451Z,0.86
2019-02-04T00:36:19.805Z,0.87
2019-02-04T00:37:19.822Z,0.91
2019-02-04T00:38:19.837Z,0.83
2019-02-04T00:39:34.498Z,0.93
2019-02-04T00:40:34.509Z,0.9
2019-02-04T00:41:19.863Z,0.8
2019-02-04T00:42:19.882Z,0.84
2019-02-04T00:43:19.887Z,0.9
2019-02-04T00:44:34.552Z,0.86
2019-02-04T00:45:19.912Z,0.76
2019-02-04T00:46:19.982Z,0.73
2019-02-04T00:47:20.157Z,0.7
2019-02-04T00:48:19.943Z,0.76
2019-02-04T00:49:19.958Z,0.75
2019-02-04T00:50:19.971Z,0.76
2019-02-04T00:51:34.640Z,0.66
2019-02-04T00:53:20.003Z,0.73
2019-02-04T00:55:20.316Z,0.69
2019-02-04T00:56:20.035Z,0.69
2019-02-04T00:57:20.058Z,0.69
2019-02-04T00:58:20.059Z,0.6
2019-02-04T00:59:20.076Z,0.69
2019-02-04T01:00:34.741Z,0.72
2019-02-04T01:01:20.096Z,0.66
2019-02-04T01:02:20.119Z,0.7
2019-02-04T01:03:20.588Z,0.7
2019-02-04T01:04:20.131Z,0.73
2019-02-04T01:05:20.144Z,0.7
2019-02-04T01:06:34.903Z,0.79
2019-02-04T01:07:20.202Z,0.73
2019-02-04T01:10:20.205Z,0.6
2019-02-04T01:12:20.224Z,0.53
2019-02-04T01:13:20.241Z,0.58
2019-02-04T01:14:20.258Z,0.62
2019-02-04T01:15:20.265Z,0.66
2019-02-04T01:16:20.272Z,0.65
2019-02-04T01:17:20.286Z,0.66
2019-02-04T01:19:20.724Z,0.72
2019-02-04T01:20:20.321Z,0.7
2019-02-04T01:21:20.097Z,0.62
2019-02-04T01:22:20.346Z,0.7
2019-02-04T01:23:20.357Z,0.72
2019-02-04T01:24:20.368Z,0.7
2019-02-04T01:25:20.395Z,0.66
2019-02-04T01:26:20.269Z,0.73
2019-02-04T01:27:35.334Z,0.69
2019-02-04T01:28:20.424Z,0.75
2019-02-04T01:29:20.425Z,0.62
2019-02-04T01:30:20.435Z,0.66
2019-02-04T01:31:20.529Z,0.62
2019-02-04T01:32:20.459Z,0.69
2019-02-04T01:33:20.469Z,0.58
2019-02-04T01:34:20.482Z,0.61
2019-02-04T01:35:20.965Z,0.68
2019-02-04T01:36:20.515Z,0.62
2019-02-04T01:37:20.525Z,0.65
2019-02-04T01:38:35.187Z,0.55
2019-02-04T01:40:20.559Z,0.57
2019-02-04T01:41:20.570Z,0.55
2019-02-04T01:42:20.585Z,0.55
2019-02-04T01:43:21.282Z,0.61
2019-02-04T01:45:20.638Z,0.57
2019-02-04T01:46:35.278Z,0.62
2019-02-04T01:47:20.641Z,0.69
2019-02-04T01:48:20.648Z,0.62
2019-02-04T01:49:20.658Z,0.65
2019-02-04T01:50:20.670Z,0.72
2019-02-04T01:51:21.277Z,0.69
2019-02-04T01:52:20.697Z,0.62
2019-02-04T01:53:20.703Z,0.55
2019-02-04T01:54:35.371Z,0.58
2019-02-04T01:55:20.731Z,0.57
2019-02-04T01:56:20.744Z,0.66
2019-02-04T01:57:20.751Z,0.61
2019-02-04T01:58:20.763Z,0.55
2019-02-04T01:59:21.447Z,0.49
2019-02-04T02:00:20.792Z,0.58
2019-02-04T02:01:20.792Z,0.53
2019-02-04T02:02:20.809Z,0.42
2019-02-04T02:03:20.812Z,0.42
2019-02-04T02:04:35.485Z,0.49
2019-02-04T02:05:20.865Z,0.47
2019-02-04T02:06:20.858Z,0.5
2019-02-04T02:07:21.354Z,0.46
2019-02-04T02:09:20.892Z,0.51
2019-02-04T02:10:35.565Z,0.6
2019-02-04T02:13:20.932Z,0.6
2019-02-04T02:14:20.944Z,0.58
2019-02-04T02:15:21.442Z,0.49
2019-02-04T02:16:35.631Z,0.51
2019-02-04T02:17:31.191Z,0.51
2019-02-04T02:18:21.014Z,0.33
2019-02-04T02:19:21.004Z,0.46
2019-02-04T02:20:21.014Z,0.39
2019-02-04T02:21:21.030Z,0.46
2019-02-04T02:22:21.040Z,0.42
2019-02-04T02:23:21.377Z,0.47
2019-02-04T02:24:21.073Z,0.47
2019-02-04T02:25:20.844Z,0.39
2019-02-04T02:27:21.101Z,0.41
2019-02-04T02:28:21.111Z,0.39
2019-02-04T02:29:21.172Z,0.35
2019-02-04T02:30:21.135Z,0.38
2019-02-04T02:31:21.566Z,0.39
2019-02-04T02:32:35.937Z,0.39
2019-02-04T02:33:21.337Z,0.36
2019-02-04T02:34:21.175Z,0.33
2019-02-04T02:35:21.196Z,0.35
2019-02-04T02:36:21.203Z,0.31
2019-02-04T02:37:21.232Z,0.32
2019-02-04T02:38:35.991Z,0.33
2019-02-04T02:39:21.260Z,0.29
2019-02-04T02:40:21.255Z,0.32
2019-02-04T02:41:35.918Z,0.33
2019-02-04T02:42:21.283Z,0.36
2019-02-04T02:43:21.391Z,0.32
2019-02-04T02:44:21.343Z,0.32
2019-02-04T02:45:21.308Z,0.26
2019-02-04T02:46:21.775Z,0.26
2019-02-04T02:47:38.268Z,0.31
2019-02-04T02:48:21.337Z,0.32
2019-02-04T02:49:21.358Z,0.35
2019-02-04T02:50:21.360Z,0.38
2019-02-04T02:51:21.385Z,0.44
2019-02-04T02:52:21.396Z,0.6
2019-02-04T02:53:21.399Z,0.68
2019-02-04T02:54:21.798Z,0.62
2019-02-04T02:55:21.423Z,0.72
2019-02-04T02:56:21.455Z,0.65
2019-02-04T02:57:21.450Z,0.78
2019-02-04T02:59:21.493Z,0.75
2019-02-04T03:00:21.498Z,0.75
2019-02-04T03:01:21.486Z,0.84
2019-02-04T03:02:22.204Z,0.79
2019-02-04T03:03:21.529Z,0.76
2019-02-04T03:04:21.669Z,0.75
2019-02-04T03:05:21.551Z,0.8
2019-02-04T03:06:21.556Z,0.78
2019-02-04T03:07:21.558Z,0.75
2019-02-04T03:09:21.584Z,0.7
2019-02-04T03:10:22.334Z,0.76
2019-02-04T03:11:21.622Z,0.91
2019-02-04T03:13:36.289Z,0.98
2019-02-04T03:14:21.643Z,0.91
2019-02-04T03:15:21.659Z,1
2019-02-04T03:16:21.664Z,1.09
2019-02-04T03:17:21.679Z,1.11
2019-02-04T03:18:22.022Z,1.15
2019-02-04T03:19:21.701Z,1.16
2019-02-04T03:20:36.369Z,1.06
2019-02-04T03:21:36.380Z,1.15
2019-02-04T03:22:21.737Z,1.06
2019-02-04T03:23:21.749Z,1.06
2019-02-04T03:24:21.759Z,1.14
2019-02-04T03:25:21.783Z,1.18
2019-02-04T03:26:22.156Z,1.22
2019-02-04T03:28:21.815Z,1.22
2019-02-04T03:29:36.500Z,1.15
2019-02-04T03:30:21.880Z,1.22
2019-02-04T03:31:21.847Z,1.14
2019-02-04T03:32:22.094Z,1.26
2019-02-04T03:33:21.945Z,1.3
2019-02-04T03:34:22.251Z,1.33
2019-02-04T03:35:21.908Z,1.4
2019-02-04T03:37:36.327Z,1.37
2019-02-04T03:38:21.929Z,1.34
2019-02-04T03:39:21.949Z,1.37
2019-02-04T03:40:21.989Z,1.3
2019-02-04T03:41:22.145Z,1.3
2019-02-04T03:42:21.970Z,1.33
2019-02-04T03:43:21.994Z,1.4
2019-02-04T03:44:21.993Z,1.47
2019-02-04T03:45:36.664Z,1.41
2019-02-04T03:46:22.040Z,1.47
2019-02-04T03:47:22.066Z,1.52
2019-02-04T03:48:36.704Z,1.5
2019-02-04T03:49:36.987Z,1.62
2019-02-04T03:50:36.726Z,1.52
2019-02-04T03:51:22.077Z,1.62
2019-02-04T03:52:22.149Z,1.54
2019-02-04T03:53:36.760Z,1.59
2019-02-04T03:54:36.769Z,1.52
2019-02-04T03:55:22.141Z,1.52
2019-02-04T03:57:22.407Z,1.52
2019-02-04T03:58:22.173Z,1.58
2019-02-04T03:59:22.172Z,1.58
2019-02-04T04:00:22.301Z,1.58
2019-02-04T04:01:36.858Z,1.58
2019-02-04T04:03:22.221Z,1.65
2019-02-04T04:04:36.894Z,1.62
2019-02-04T04:05:22.564Z,1.65
2019-02-04T04:06:22.266Z,1.65
2019-02-04T04:07:22.273Z,1.65
2019-02-04T04:08:22.283Z,1.68
2019-02-04T04:09:22.297Z,1.76
2019-02-04T04:10:22.310Z,1.79
2019-02-04T04:11:22.412Z,1.68
2019-02-04T04:12:22.335Z,1.66
2019-02-04T04:14:22.349Z,1.73
2019-02-04T04:15:22.362Z,1.76
2019-02-04T04:16:37.038Z,1.7
2019-02-04T04:17:22.508Z,1.68
2019-02-04T04:18:22.401Z,1.65
2019-02-04T04:19:22.424Z,1.66
2019-02-04T04:20:37.086Z,1.63
2019-02-04T04:21:22.476Z,1.7
2019-02-04T04:22:22.447Z,1.73
2019-02-04T04:23:22.456Z,1.68
2019-02-04T04:24:22.476Z,1.8
2019-02-04T04:25:22.282Z,1.77
2019-02-04T04:26:22.500Z,1.7
2019-02-04T04:28:22.524Z,1.72
2019-02-04T04:29:23.089Z,1.68
2019-02-04T04:30:22.546Z,1.63
2019-02-04T04:31:22.557Z,1.69
2019-02-04T04:32:22.569Z,1.68
2019-02-04T04:33:22.598Z,1.72
2019-02-04T04:34:22.678Z,1.72
2019-02-04T04:35:22.607Z,1.68
2019-02-04T04:37:23.114Z,1.8
2019-02-04T04:38:22.653Z,1.8
2019-02-04T04:39:22.657Z,1.77
2019-02-04T04:40:22.677Z,1.72
2019-02-04T04:41:22.679Z,1.79
2019-02-04T04:42:22.691Z,1.77
2019-02-04T04:43:22.701Z,1.79
2019-02-04T04:44:22.713Z,1.83
2019-02-04T04:45:23.181Z,1.86
2019-02-04T04:46:22.748Z,1.79
2019-02-04T04:47:22.753Z,1.77
2019-02-04T04:48:37.419Z,1.93
2019-02-04T04:49:22.789Z,1.86
2019-02-04T04:50:22.884Z,1.86
2019-02-04T04:51:22.816Z,1.79
2019-02-04T04:52:22.816Z,1.84
2019-02-04T04:53:23.038Z,1.73
2019-02-04T04:54:22.833Z,1.79
2019-02-04T04:55:22.851Z,1.79
2019-02-04T04:56:37.519Z,1.79
2019-02-04T04:58:22.984Z,1.73
2019-02-04T04:59:22.903Z,1.77
2019-02-04T05:00:22.912Z,1.72
2019-02-04T05:01:23.191Z,1.77
2019-02-04T05:02:22.945Z,1.8
2019-02-04T05:04:37.617Z,1.84
2019-02-04T05:05:22.968Z,1.86
2019-02-04T05:06:22.982Z,1.84
2019-02-04T05:07:23.000Z,1.87
2019-02-04T05:08:23.245Z,1.77
2019-02-04T05:09:23.019Z,1.79
2019-02-04T05:10:23.032Z,1.86
2019-02-04T05:11:23.045Z,1.84
2019-02-04T05:12:23.059Z,1.86
2019-02-04T05:13:23.073Z,1.81
2019-02-04T05:14:23.077Z,1.86
2019-02-04T05:15:23.088Z,1.81
2019-02-04T05:16:23.387Z,1.86
2019-02-04T05:17:23.115Z,1.81
2019-02-04T05:18:23.134Z,1.9
2019-02-04T05:19:23.140Z,1.84
2019-02-04T05:20:37.802Z,1.86
2019-02-04T05:21:23.168Z,1.91
2019-02-04T05:22:23.183Z,1.77
2019-02-04T05:23:23.188Z,1.79
2019-02-04T05:24:23.428Z,1.68
2019-02-04T05:25:23.226Z,1.7
2019-02-04T05:26:23.223Z,1.76
2019-02-04T05:27:23.245Z,1.72
2019-02-04T05:28:23.247Z,1.72
2019-02-04T05:29:23.286Z,1.7
2019-02-04T05:31:23.288Z,1.63
2019-02-04T05:32:23.563Z,1.7
2019-02-04T05:33:23.067Z,1.59
2019-02-04T05:34:23.322Z,1.52
2019-02-04T05:35:23.346Z,1.52
2019-02-04T05:36:37.997Z,1.6
2019-02-04T05:37:23.363Z,1.55
2019-02-04T05:38:23.370Z,1.68
2019-02-04T05:39:23.383Z,1.62
2019-02-04T05:40:23.464Z,1.6
2019-02-04T05:41:23.402Z,1.69
2019-02-04T05:43:38.089Z,1.68
2019-02-04T05:44:23.451Z,1.69
2019-02-04T05:45:23.454Z,1.76
2019-02-04T05:46:23.463Z,1.7
2019-02-04T05:47:23.491Z,1.7
2019-02-04T05:48:23.848Z,1.76
2019-02-04T05:49:23.509Z,1.73
2019-02-04T05:51:38.181Z,1.68
2019-02-04T05:52:23.538Z,1.76
2019-02-04T05:53:23.549Z,1.79
2019-02-04T05:54:23.557Z,1.83
2019-02-04T05:55:23.579Z,1.79
2019-02-04T05:56:24.034Z,1.72
2019-02-04T05:57:23.593Z,1.79
2019-02-04T05:58:38.268Z,1.8
2019-02-04T05:59:23.714Z,1.76
2019-02-04T06:00:23.643Z,1.8
2019-02-04T06:01:23.653Z,1.8
2019-02-04T06:02:23.673Z,1.8
2019-02-04T06:03:23.682Z,1.69
2019-02-04T06:04:24.238Z,1.66
2019-02-04T06:05:23.798Z,1.65
2019-02-04T06:06:23.810Z,1.58
2019-02-04T06:07:23.847Z,1.5
2019-02-04T06:08:23.731Z,1.45
2019-02-04T06:09:23.747Z,1.4
2019-02-04T06:10:23.766Z,1.47
2019-02-04T06:11:23.767Z,1.36
2019-02-04T06:12:24.125Z,1.4
2019-02-04T06:13:23.788Z,1.42
2019-02-04T06:14:23.809Z,1.34
2019-02-04T06:15:23.868Z,1.33
2019-02-04T06:16:23.840Z,1.32
2019-02-04T06:17:23.856Z,1.36
2019-02-04T06:18:23.854Z,1.34
2019-02-04T06:19:24.049Z,1.34
2019-02-04T06:20:24.225Z,1.34
2019-02-04T06:21:23.999Z,1.34
2019-02-04T06:22:23.905Z,1.34
2019-02-04T06:23:38.575Z,1.24
2019-02-04T06:24:23.933Z,1.24
2019-02-04T06:25:23.997Z,1.18
2019-02-04T06:26:23.974Z,1.14
2019-02-04T06:27:23.985Z,1.06
2019-02-04T06:28:23.975Z,1.11
2019-02-04T06:29:23.989Z,1.16
2019-02-04T06:30:24.158Z,1.11
2019-02-04T06:31:24.030Z,1.2
2019-02-04T06:32:24.027Z,1.06
2019-02-04T06:33:24.046Z,1.09
2019-02-04T06:34:24.074Z,1.05
2019-02-04T06:35:24.399Z,1.02
2019-02-04T06:36:24.067Z,0.93
2019-02-04T06:37:24.098Z,0.9
2019-02-04T06:38:24.097Z,0.8
2019-02-04T06:39:38.764Z,0.86
2019-02-04T06:40:24.126Z,0.66
2019-02-04T06:41:38.793Z,0.72
2019-02-04T06:42:24.150Z,0.61
2019-02-04T06:43:24.692Z,0.66
2019-02-04T06:44:24.164Z,0.6
2019-02-04T06:45:24.277Z,0.62
2019-02-04T06:46:24.197Z,0.55
2019-02-04T06:47:38.859Z,0.57
2019-02-04T06:48:24.231Z,0.57
2019-02-04T06:49:24.229Z,0.51
2019-02-04T06:50:24.239Z,0.47
2019-02-04T06:51:24.799Z,0.38
2019-02-04T06:53:24.283Z,0.41
2019-02-04T06:54:24.392Z,0.39
2019-02-04T06:55:38.966Z,0.26
2019-02-04T06:56:24.311Z,0.28
2019-02-04T06:57:24.326Z,0.28
2019-02-04T06:58:24.339Z,0.35
2019-02-04T06:59:24.988Z,0.31
2019-02-04T07:00:39.016Z,0.31
2019-02-04T07:01:24.368Z,0.38
2019-02-04T07:02:39.038Z,0.32
2019-02-04T07:03:39.051Z,0.31
2019-02-04T07:04:24.461Z,0.32
2019-02-04T07:05:24.424Z,0.33
2019-02-04T07:06:24.507Z,0.38
2019-02-04T07:07:24.795Z,0.5
2019-02-04T07:08:24.459Z,0.58
2019-02-04T07:09:24.471Z,0.61
2019-02-04T07:10:24.481Z,0.72
2019-02-04T07:12:24.621Z,0.87
2019-02-04T07:13:24.514Z,0.91
2019-02-04T07:14:24.960Z,0.97
2019-02-04T07:15:24.546Z,1.12
2019-02-04T07:16:24.547Z,1.06
2019-02-04T07:17:39.219Z,1.06
2019-02-04T07:18:24.570Z,1.12
2019-02-04T07:19:29.340Z,1.09
2019-02-04T07:20:24.601Z,1.12
2019-02-04T07:21:25.937Z,1.22
2019-02-04T07:22:25.562Z,1.2
2019-02-04T07:23:24.645Z,1.15
2019-02-04T07:24:24.641Z,1.09
2019-02-04T07:25:24.463Z,1.15
2019-02-04T07:26:39.355Z,1.08
2019-02-04T07:28:39.358Z,1.11
2019-02-04T07:29:24.847Z,1.14
2019-02-04T07:30:25.124Z,1.14
2019-02-04T07:31:24.736Z,1.2
2019-02-04T07:32:24.758Z,1.18
2019-02-04T07:33:24.773Z,1.26
2019-02-04T07:34:24.782Z,1.3
2019-02-04T07:35:24.790Z,1.36
2019-02-04T07:36:24.796Z,1.36
2019-02-04T07:37:25.056Z,1.44
2019-02-04T07:39:24.841Z,1.4
2019-02-04T07:40:24.950Z,1.33
2019-02-04T07:41:24.867Z,1.2
2019-02-04T07:42:24.945Z,1.23
2019-02-04T07:43:24.890Z,1.15
2019-02-04T07:44:24.894Z,1.14
2019-02-04T07:45:25.568Z,1.16
2019-02-04T07:46:27.534Z,1.02
2019-02-04T07:47:24.945Z,1.06
2019-02-04T07:48:24.950Z,1.11
2019-02-04T07:49:34.700Z,1.16
2019-02-04T07:50:24.973Z,1.29
2019-02-04T07:51:24.997Z,1.32
2019-02-04T07:52:25.003Z,1.54
2019-02-04T07:53:25.760Z,1.5
2019-02-04T07:54:25.024Z,1.55
2019-02-04T07:55:25.035Z,1.63
2019-02-04T07:56:25.052Z,1.66
2019-02-04T07:57:25.067Z,1.76
2019-02-04T07:58:39.729Z,1.77
2019-02-04T07:59:25.092Z,1.77
2019-02-04T08:00:25.104Z,1.83
2019-02-04T08:01:25.787Z,1.8
2019-02-04T08:02:25.133Z,1.9
2019-02-04T08:03:25.145Z,1.76
2019-02-04T08:04:25.177Z,1.83
2019-02-04T08:05:25.175Z,1.87
2019-02-04T08:06:25.216Z,1.93
2019-02-04T08:07:25.194Z,2.02
2019-02-04T08:08:25.223Z,1.88
2019-02-04T08:09:25.555Z,2.02
2019-02-04T08:12:25.260Z,1.99
2019-02-04T08:13:25.029Z,2.16
2019-02-04T08:14:39.947Z,2.07
2019-02-04T08:15:25.308Z,2.07
2019-02-04T08:16:25.077Z,2.16
2019-02-04T08:17:25.638Z,2.14
2019-02-04T08:18:40.007Z,2.25
2019-02-04T08:19:25.105Z,2.36
2019-02-04T08:20:42.147Z,2.38
2019-02-04T08:21:25.387Z,2.39
2019-02-04T08:22:25.403Z,2.36
2019-02-04T08:23:25.423Z,2.38
2019-02-04T08:24:25.715Z,2.38
2019-02-04T08:25:28.969Z,2.38
2019-02-04T08:26:25.458Z,2.38
2019-02-04T08:27:25.492Z,2.41
2019-02-04T08:28:25.510Z,2.41
2019-02-04T08:29:25.513Z,2.46
2019-02-04T08:30:41.111Z,2.52
2019-02-04T08:31:25.635Z,2.59
2019-02-04T08:32:26.144Z,2.6
2019-02-04T08:33:25.564Z,2.56
2019-02-04T08:34:25.589Z,2.59
2019-02-04T08:35:25.597Z,2.59
2019-02-04T08:36:44.304Z,2.74
2019-02-04T08:37:25.656Z,2.71
2019-02-04T08:38:25.641Z,2.69
2019-02-04T08:39:25.658Z,2.67
2019-02-04T08:40:26.054Z,2.74
2019-02-04T08:41:25.683Z,2.78
2019-02-04T08:42:25.714Z,2.82
2019-02-04T08:43:25.724Z,2.87
2019-02-04T08:44:25.718Z,3
2019-02-04T08:45:25.749Z,2.9
2019-02-04T08:46:40.400Z,3
2019-02-04T08:47:29.029Z,2.92
2019-02-04T08:48:25.775Z,2.96
2019-02-04T08:49:25.882Z,3.03
2019-02-04T08:50:25.817Z,2.96
2019-02-04T08:51:25.826Z,2.95
2019-02-04T08:52:25.843Z,3
2019-02-04T08:53:25.854Z,3.05
2019-02-04T08:54:25.938Z,3.15
2019-02-04T08:55:26.206Z,3.13
2019-02-04T08:56:25.897Z,3.06
2019-02-04T08:57:25.669Z,3.1
2019-02-04T08:58:25.995Z,3.08
2019-02-04T08:59:25.959Z,3.18
2019-02-04T09:00:25.970Z,3.11
2019-02-04T09:01:40.620Z,3.15
2019-02-04T09:02:26.296Z,3.15
2019-02-04T09:03:25.997Z,3.08
2019-02-04T09:04:26.030Z,3.24
2019-02-04T09:05:26.037Z,3.14
2019-02-04T09:06:26.045Z,3.17
2019-02-04T09:07:26.051Z,3.21
2019-02-04T09:08:26.079Z,3.17
2019-02-04T09:09:26.085Z,3.14
2019-02-04T09:10:26.835Z,3.29
2019-02-04T09:11:26.127Z,3.35
2019-02-04T09:12:26.135Z,3.45
2019-02-04T09:14:26.157Z,3.5
2019-02-04T09:15:26.192Z,3.5
2019-02-04T09:16:26.182Z,3.51
2019-02-04T09:17:26.389Z,3.48
2019-02-04T09:18:26.209Z,3.52
2019-02-04T09:19:26.236Z,3.45
2019-02-04T09:20:26.251Z,3.55
2019-02-04T09:21:26.270Z,3.55
2019-02-04T09:22:40.928Z,3.45
2019-02-04T09:23:40.941Z,3.52
2019-02-04T09:24:26.305Z,3.48
2019-02-04T09:25:26.979Z,3.58
2019-02-04T09:26:26.350Z,3.51
2019-02-04T09:27:26.350Z,3.65
2019-02-04T09:28:41.026Z,3.68
2019-02-04T09:29:26.390Z,3.62
2019-02-04T09:30:26.442Z,3.68
2019-02-04T09:31:26.405Z,3.51
2019-02-04T09:32:26.436Z,3.47
2019-02-04T09:33:41.106Z,3.62
2019-02-04T09:34:26.460Z,3.61
2019-02-04T09:35:26.569Z,3.7
2019-02-04T09:36:26.496Z,3.7
2019-02-04T09:37:26.503Z,3.76
2019-02-04T09:38:26.520Z,3.76
2019-02-04T09:39:26.527Z,3.79
2019-02-04T09:40:26.754Z,3.75
2019-02-04T09:41:26.562Z,3.84
2019-02-04T09:42:26.672Z,3.88
2019-02-04T09:44:26.608Z,3.83
2019-02-04T09:45:30.605Z,3.73
2019-02-04T09:46:26.630Z,3.84
2019-02-04T09:47:26.648Z,3.93
2019-02-04T09:48:27.159Z,3.98
2019-02-04T09:49:41.330Z,3.87
2019-02-04T09:51:41.367Z,4.05
2019-02-04T09:52:26.732Z,4.04
2019-02-04T09:54:26.745Z,4.02
2019-02-04T09:55:26.786Z,3.97
2019-02-04T09:56:27.209Z,3.87
2019-02-04T09:57:26.823Z,3.91
2019-02-04T09:59:41.473Z,3.9
2019-02-04T10:00:26.844Z,4
2019-02-04T10:01:26.854Z,4.02
2019-02-04T10:02:26.868Z,3.96
2019-02-04T10:03:26.878Z,4.05
2019-02-04T10:04:27.177Z,4.11
2019-02-04T10:05:41.565Z,4.23
2019-02-04T10:06:26.926Z,4.42
2019-02-04T10:07:26.947Z,4.4
2019-02-04T10:08:41.616Z,4.45
2019-02-04T10:09:26.969Z,4.47
2019-02-04T10:10:26.990Z,4.48
2019-02-04T10:11:27.001Z,4.45
2019-02-04T10:12:27.430Z,4.45
2019-02-04T10:13:27.031Z,4.41
2019-02-04T10:14:27.051Z,4.47
2019-02-04T10:15:27.111Z,4.37
2019-02-04T10:16:27.135Z,4.48
2019-02-04T10:17:27.219Z,4.45
2019-02-04T10:18:27.178Z,4.54
2019-02-04T10:19:27.195Z,4.55
2019-02-04T10:20:38.305Z,4.45
2019-02-04T10:21:41.875Z,4.48
2019-02-04T10:22:27.243Z,4.48
2019-02-04T10:23:27.216Z,4.69
2019-02-04T10:24:27.414Z,4.7
2019-02-04T10:25:27.254Z,4.6
2019-02-04T10:26:27.251Z,4.67
2019-02-04T10:27:27.608Z,4.65
2019-02-04T10:28:27.339Z,4.67
2019-02-04T10:29:27.368Z,4.72
2019-02-04T10:30:27.389Z,4.67
2019-02-04T10:31:27.377Z,4.72
2019-02-04T10:32:27.365Z,4.67
2019-02-04T10:33:27.397Z,4.8
2019-02-04T10:34:27.437Z,4.73
2019-02-04T10:35:27.727Z,4.75
2019-02-04T10:36:42.164Z,4.7
2019-02-04T10:37:27.428Z,4.85
2019-02-04T10:38:27.460Z,4.84
2019-02-04T10:39:27.504Z,4.86
2019-02-04T10:41:27.566Z,4.88
2019-02-04T10:42:27.574Z,4.92
2019-02-04T10:43:27.911Z,4.92
2019-02-04T10:45:27.660Z,4.99
2019-02-04T10:46:27.606Z,4.96
2019-02-04T10:47:27.656Z,4.97
2019-02-04T10:48:27.621Z,5.04
2019-02-04T10:49:27.819Z,5.04
2019-02-04T10:50:27.684Z,5.02
2019-02-04T10:51:28.017Z,5.13
2019-02-04T10:52:27.796Z,5.1
2019-02-04T10:54:27.493Z,5.06
2019-02-04T10:55:27.804Z,5.13
2019-02-04T10:56:27.755Z,5.09
2019-02-04T10:58:27.854Z,5.07
2019-02-04T11:00:27.818Z,5.2
2019-02-04T11:01:27.789Z,5.22
2019-02-04T11:02:27.826Z,5.18
2019-02-04T11:03:27.869Z,5.17
2019-02-04T11:04:27.918Z,5.17
2019-02-04T11:05:27.910Z,5.13
2019-02-04T11:06:28.153Z,5.12
2019-02-04T11:07:28.237Z,5.15
2019-02-04T11:09:28.028Z,5.25
2019-02-04T11:10:27.956Z,5.33
2019-02-04T11:11:42.675Z,5.33
2019-02-04T11:12:27.971Z,5.33
2019-02-04T11:13:28.001Z,5.24
2019-02-04T11:14:28.264Z,5.3
2019-02-04T11:15:30.954Z,5.4
2019-02-04T11:16:28.051Z,5.46
2019-02-04T11:17:28.145Z,5.45
2019-02-04T11:18:28.131Z,5.4
2019-02-04T11:19:28.113Z,5.46
2019-02-04T11:20:28.126Z,5.39
2019-02-04T11:21:28.066Z,5.42
2019-02-04T11:22:28.598Z,5.48
2019-02-04T11:23:29.188Z,5.38
2019-02-04T11:24:43.126Z,5.42
2019-02-04T11:25:28.214Z,5.35
2019-02-04T11:26:28.238Z,5.31
2019-02-04T11:27:28.259Z,5.39
2019-02-04T11:28:28.320Z,5.43
2019-02-04T11:29:28.643Z,5.43
2019-02-04T11:30:28.861Z,5.38
2019-02-04T11:31:43.067Z,5.42
2019-02-04T11:32:28.297Z,5.42
2019-02-04T11:33:28.334Z,5.49
2019-02-04T11:34:28.286Z,5.49
2019-02-04T11:35:28.067Z,5.48
2019-02-04T11:36:28.485Z,5.53
2019-02-04T11:37:28.409Z,5.56
2019-02-04T11:38:29.032Z,5.51
2019-02-04T11:39:28.443Z,5.53
2019-02-04T11:40:45.766Z,5.39
2019-02-04T11:41:28.567Z,5.48
2019-02-04T11:42:28.601Z,5.46
2019-02-04T11:44:28.410Z,5.4
2019-02-04T11:45:28.524Z,5.57
2019-02-04T11:46:28.845Z,5.57
2019-02-04T11:47:28.530Z,5.57
2019-02-04T11:48:43.175Z,5.56
2019-02-04T11:49:28.482Z,5.57
2019-02-04T11:50:28.511Z,5.46
2019-02-04T11:52:28.534Z,5.57
2019-02-04T11:53:37.206Z,5.48
2019-02-04T11:54:28.791Z,5.57
2019-02-04T11:55:28.568Z,5.6
2019-02-04T11:56:43.352Z,5.63
2019-02-04T11:57:28.604Z,5.72
2019-02-04T11:58:28.620Z,5.65
2019-02-04T11:59:28.635Z,5.63
2019-02-04T12:00:28.651Z,5.48
2019-02-04T12:01:28.874Z,5.43
2019-02-04T12:02:39.423Z,5.42
2019-02-04T12:03:43.355Z,5.64
2019-02-04T12:04:28.471Z,5.68
2019-02-04T12:05:28.738Z,5.67
2019-02-04T12:06:28.742Z,5.76
2019-02-04T12:07:28.756Z,5.82
2019-02-04T12:08:28.773Z,5.76
2019-02-04T12:09:29.186Z,5.82
2019-02-04T12:10:28.806Z,5.74
2019-02-04T12:11:43.752Z,5.81
2019-02-04T12:12:28.850Z,5.72
2019-02-04T12:13:28.847Z,5.82
2019-02-04T12:14:28.863Z,5.93
2019-02-04T12:15:28.875Z,5.89
2019-02-04T12:16:28.897Z,5.96
2019-02-04T12:17:29.401Z,5.94
2019-02-04T12:18:28.930Z,5.96
2019-02-04T12:19:28.982Z,5.97
2019-02-04T12:20:28.952Z,5.91
2019-02-04T12:21:28.975Z,5.93
2019-02-04T12:22:28.991Z,5.93
2019-02-04T12:23:29.007Z,5.86
2019-02-04T12:24:29.021Z,6
2019-02-04T12:26:29.058Z,6.09
2019-02-04T12:27:36.810Z,5.96
2019-02-04T12:28:29.080Z,5.99
2019-02-04T12:29:29.096Z,6.04
2019-02-04T12:30:30.986Z,5.99
2019-02-04T12:31:29.130Z,6.03
2019-02-04T12:32:29.170Z,6.03
2019-02-04T12:33:29.669Z,6.09
2019-02-04T12:34:29.318Z,6.09
2019-02-04T12:35:29.181Z,6.03
2019-02-04T12:36:29.212Z,5.82
2019-02-04T12:37:32.321Z,5.97
2019-02-04T12:38:29.229Z,5.86
2019-02-04T12:39:29.355Z,5.85
2019-02-04T12:40:29.561Z,5.83
2019-02-04T12:41:29.275Z,5.82
2019-02-04T12:42:29.297Z,5.82
2019-02-04T12:43:43.963Z,5.93
2019-02-04T12:44:29.429Z,5.93
2019-02-04T12:45:29.341Z,5.94
2019-02-04T12:46:44.071Z,5.93
2019-02-04T12:47:29.372Z,5.97
2019-02-04T12:48:30.029Z,5.9
2019-02-04T12:49:44.062Z,5.99
2019-02-04T12:50:29.542Z,5.93
2019-02-04T12:51:38.567Z,5.86
2019-02-04T12:52:29.455Z,5.83
2019-02-04T12:53:29.461Z,5.86
2019-02-04T12:54:31.582Z,5.79
2019-02-04T12:55:29.500Z,5.79
2019-02-04T12:56:30.185Z,5.81
2019-02-04T12:57:29.520Z,5.67
2019-02-04T12:58:29.535Z,5.68
2019-02-04T12:59:47.636Z,5.67
2019-02-04T13:00:29.567Z,5.75
2019-02-04T13:01:29.580Z,5.75
2019-02-04T13:03:29.627Z,5.94
2019-02-04T13:04:30.188Z,5.94
2019-02-04T13:05:29.639Z,5.94
2019-02-04T13:06:29.716Z,5.82
2019-02-04T13:07:29.773Z,6
2019-02-04T13:09:29.758Z,6.08
2019-02-04T13:10:29.724Z,6.09
2019-02-04T13:11:29.735Z,6.06
2019-02-04T13:12:30.173Z,6
2019-02-04T13:13:29.783Z,6.04
2019-02-04T13:14:29.785Z,6.12
2019-02-04T13:15:44.453Z,6.11
2019-02-04T13:16:29.865Z,6.14
2019-02-04T13:17:46.392Z,6.11
2019-02-04T13:18:29.841Z,6.08
2019-02-04T13:19:29.973Z,6.12
2019-02-04T13:20:29.921Z,6.12
2019-02-04T13:21:29.885Z,6
2019-02-04T13:22:29.895Z,5.97
2019-02-04T13:23:29.920Z,5.99
2019-02-04T13:24:30.061Z,5.96
2019-02-04T13:25:29.946Z,6
2019-02-04T13:27:30.306Z,5.93
2019-02-04T13:28:29.990Z,6.06
2019-02-04T13:29:30.014Z,6
2019-02-04T13:30:30.027Z,5.99
2019-02-04T13:31:44.699Z,5.96
2019-02-04T13:32:30.076Z,5.91
2019-02-04T13:33:30.074Z,5.97
2019-02-04T13:34:29.867Z,6.01
2019-02-04T13:35:33.525Z,6.09
2019-02-04T13:36:30.126Z,6.06
2019-02-04T13:37:30.130Z,6.08
2019-02-04T13:38:30.150Z,6.08
2019-02-04T13:39:30.179Z,6.01
2019-02-04T13:40:30.188Z,6.06
2019-02-04T13:41:44.847Z,6.15
2019-02-04T13:42:30.206Z,6
2019-02-04T13:43:30.818Z,5.93
2019-02-04T13:44:30.250Z,6.06
2019-02-04T13:45:30.266Z,6.06
2019-02-04T13:46:44.924Z,6.03
2019-02-04T13:47:30.298Z,6.04
2019-02-04T13:48:30.306Z,6.06
2019-02-04T13:49:30.323Z,6.08
2019-02-04T13:50:30.333Z,5.97
2019-02-04T13:51:56.673Z,6
2019-02-04T13:52:30.368Z,6.18
2019-02-04T13:53:31.936Z,6.08
2019-02-04T13:54:30.401Z,6
2019-02-04T13:55:30.409Z,6.09
2019-02-04T13:56:30.420Z,6.01
2019-02-04T13:58:30.458Z,5.97
2019-02-04T13:59:31.237Z,6.03
2019-02-04T14:00:32.053Z,6.04
2019-02-04T14:01:30.506Z,6.12
2019-02-04T14:02:30.515Z,6.01
2019-02-04T14:03:30.534Z,5.99
2019-02-04T14:04:30.553Z,6
2019-02-04T14:06:30.578Z,6.01
2019-02-04T14:07:31.127Z,5.9
2019-02-04T14:09:30.633Z,5.82
2019-02-04T14:10:30.633Z,5.81
2019-02-04T14:11:30.661Z,5.83
2019-02-04T14:14:30.705Z,5.72
2019-02-04T14:15:35.412Z,5.67
2019-02-04T14:16:30.733Z,5.58
2019-02-04T14:17:30.739Z,5.63
2019-02-04T14:18:45.417Z,5.6
2019-02-04T14:20:30.798Z,5.64
2019-02-04T14:21:30.809Z,5.56
2019-02-04T14:22:45.481Z,5.49
2019-02-04T14:23:32.931Z,5.49